Rallye Mare e Machja 2017
Le 10,11, 12 Novembre
1 1 LEANDRI Jean-Mathieu/GORGUILO Anthony Skoda Fabia R 5 1:14:00,9
2 2 GORDON Jean Pierre/GORDON Fabrice Ford Fiesta R 5 1:16:23,0 +02:22,1 +02:22,1
3 7 LEFEBVRE Frédéric/DINI Gilbert Mitsubishi Evo 9 FA 8 1:18:08,7 +04:07,8 +01:45,7
4 4 PISANO Mickaël/BERTHOLLE Olivier Ford Fiesta R 5 1:18:59,1 +04:58,2 +00:50,4
5 40 ALERINI Paul/BARICHELLA Tony Peugeot 208 Vti R 2 1:19:46,5 +05:45,6 +00:47,4
6 41 FIORI Jean-Antoine/TAVERA Julien Citroën C2 R2 R 2 1:19:53,9 +05:53,0 +00:07,4
7 28 VANNUCCI Louis/DE BARTOLO Fabrice Citroën Saxo S1600 FA 6K 1:20:16,3 +06:15,4 +00:22,4
8 43 SERRA Dominique/BURESI Francois-Xavier Peugeot 208 Vti R 2 1:20:41,8 +06:40,9 +00:25,5
9 26 ANDREUCCI Frédéric/LECA Nicolas Renault Clio 16V FA 6K 1:20:43,7 +06:42,8 +00:01,9
10 50 CHASSAING Philippe/BACCHIOLELLI Jean-Baptiste Renault Clio Ragnotti FN 3 1:21:05,4 +07:04,5 +00:21,7
11 49 MUSELLI Jean-Philippe/MASSON Elodie Renault Clio FN 3 1:21:22,2 +07:21,3 +00:16,8
12 51 DE LA FOATA Paul/TERRONI Cédric Renault Clio Ragnotti N 3 1:22:27,8 +08:26,9 +01:05,6
13 14 GAMBARELLI Anghjulu/CASANOVA Miguel Renault Clio F2 14 1:23:02,5 +09:01,6 +00:34,7
14 46 BURESI Adrien/BURESI Romain Peugeot 208 R2 R 2 1:24:25,6 +10:24,7 +01:23,1
15 34 MARIANI Anthony/HELM Vivien Peugeot 206 Xs FA 6K 1:25:31,3 +11:30,4 +01:05,7
16 65 LORENZONI Philippe/CATELLAGGI Julie Honda Civic Eg6 FN 2 1:25:42,3 +11:41,4 +00:11,0
17 45 BUCCI Pierre-Laurent/CAVIGLIOLI Caroline Citroën C2 R2 Max R 2 1:25:51,8 +11:50,9 +00:09,5
18 59 MARCHETTI Michel/MAUREL Virginie Citroën Saxo Vts F2 13 1:26:01,6 +12:00,7 +00:09,8
19 64 VENTURI Christian/PIERAZZI Arnaud Peugeot 205 Rallye FA 5 1:26:09,1 +12:08,2 +00:07,5
20 10 ROSSI Yannick/VOLPEI Baptiste Mitsubishi Lancer Evo 9 FN 4 1:26:17,2 +12:16,3 +00:08,1
21 54 DE MEYER Jean-Michel/FRATTI Eric Renault Clio Ragnotti N 3 1:26:24,2 +12:23,3 +00:07,0
22 33 MARCHINI Jean Paul/SIMONETTI Johanna Peugeot 206 Xs A 6K 1:26:25,4 +12:24,5 +00:01,2
23 15 FILMONT Jérôme/VIGNOLI Jean-Francois Peugeot 306 S16 F2 14 1:27:42,5 +13:41,6 +01:17,1
24 32 BROQUET John/STEFANAGGI Antoine Peugeot 106 S16 A 6K 1:28:22,4 +14:21,5 +00:39,9
25 6 GIOVANNANGELI Jean Baptiste/SANTARELLI Coralie BMW M3 FA 8 1:28:29,3 +14:28,4 +00:06,9
26 66 MAESTRACCI François/CASANOVA Sébastien Peugeot 106 FN 2 1:28:31,2 +14:30,3 +00:01,9
27 68 NIVAGGIONI Jean-Toussaint/PONSOT Sébastien Citroën Saxo Vts FN 2 1:28:34,3 +14:33,4 +00:03,1
28 62 SALINI Laura/PERETTI Myriam Citroën Saxo FA 6 1:29:44,7 +15:43,8 +01:10,4
29 35 MARTINETTI Jean-Laurent/DELCLAUD Christian Peugeot 206 Xs A 6K 1:31:05,9 +17:05,0 +01:21,2
30 74 PINELLI Jean-Pierre/CANEGGIANI Dylan Peugeot 205 Rallye F2 12 1:31:19,5 +17:18,6 +00:13,6
31 37 CASALTA Cyril/FERRACCI Nicolas Peugeot 206 FA 6K 1:31:51,6 +17:50,7 +00:32,1
32 44 ANTONA Julien/MANZAGGI Nicolas Citroën C2 R2 Max R 2 1:32:00,3 +17:59,4 +00:08,7
33 48 PAOLI Benjamin/MOSSA Sebastien Peugeot 208 Vti R 2 1:32:35,0 +18:34,1 +00:34,7
34 23 ROBERT Alexandre/MILIANI Pascal Peugeot 205 F2 14 1:32:53,2 +18:52,3 +00:18,2
35 67 CASABIANCA Jacques-Francois/PENNACCHIONI Marcel Peugeot 106 S16 FN 2 1:32:55,0 +18:54,1 +00:01,8
36 76 NICOLI Gérard/GALTIERI Marie-Flore Citroën Ax Sport FN 1 1:34:25,5 +20:24,6 +01:30,5
37 36 GERONIMI Dominique-Noel/QUILICI Anthony Peugeot 106 S16 FA 6K 1:36:05,1 +22:04,2 +01:39,6
38 38 CADDEO Allan/LOUVEL Jade Peugeot 206 Xs FA 6K 1:37:36,5 +23:35,6 +01:31,4
39 25 SALVADORI Paul-Joseph/CARRE Jessica Peugeot 205 GTI F2 14 1:38:12,8 +24:11,9 +00:36,3
40 75 TROMBI Philippe/DELATTRE Judicael Peugeot 106 F2 12 1:38:39,1 +24:38,2 +00:26,3
41 72 PAPON Jean-Noel/AMBROSI Céline Citroën Saxo Vts F2 12 1:43:52,8 +29:51,9 +05:13,7
42 22 RENUCCI Jacques-Andre/RENUCCI Daniel Peugeot 205 Gti F2 14 1:46:12,8 +32:11,9 +02:20,0
43 47 GIANNINI Eric/GIANNINI Anthony Peugeot 208 R2 R 2 1:46:18,6 +32:17,7 +00:05,8
Clt Equipage Voiture Gr/Cl Temps Ecart 1er Ecart préc. Catégories
Commentaires: © PatricK Soft  
(Temps forfaitaires=couleur bleue)
Classés:43

Epreuve: Groupe: Catégorie:

 
Retour
Classement après ES6-Circuit du Maquis (38.060 km)